sensor_id;sensor_type;location;lat;lon;timestamp;temperature;humidity
18073;DHT22;9161;47.348;9.648;2022-08-04T00:00:27;20.30;99.90
18073;DHT22;9161;47.348;9.648;2022-08-04T00:05:18;20.20;99.90
18073;DHT22;9161;47.348;9.648;2022-08-04T00:10:06;20.30;99.90
18073;DHT22;9161;47.348;9.648;2022-08-04T00:14:50;20.50;99.90
18073;DHT22;9161;47.348;9.648;2022-08-04T00:19:42;20.60;99.90
18073;DHT22;9161;47.348;9.648;2022-08-04T00:24:29;20.50;99.90
18073;DHT22;9161;47.348;9.648;2022-08-04T00:29:13;20.50;99.90
18073;DHT22;9161;47.348;9.648;2022-08-04T00:33:57;20.30;99.90
18073;DHT22;9161;47.348;9.648;2022-08-04T00:38:43;20.20;99.90
18073;DHT22;9161;47.348;9.648;2022-08-04T00:43:31;20.20;99.90
18073;DHT22;9161;47.348;9.648;2022-08-04T00:48:24;20.10;99.90
18073;DHT22;9161;47.348;9.648;2022-08-04T00:53:18;19.90;99.90
18073;DHT22;9161;47.348;9.648;2022-08-04T00:58:19;19.90;99.90
18073;DHT22;9161;47.348;9.648;2022-08-04T01:03:10;20.00;99.90
18073;DHT22;9161;47.348;9.648;2022-08-04T01:08:23;20.00;99.90
18073;DHT22;9161;47.348;9.648;2022-08-04T01:13:35;19.80;99.90
18073;DHT22;9161;47.348;9.648;2022-08-04T01:18:29;19.60;99.90
18073;DHT22;9161;47.348;9.648;2022-08-04T01:23:36;19.60;99.90
18073;DHT22;9161;47.348;9.648;2022-08-04T01:28:40;19.40;99.90
18073;DHT22;9161;47.348;9.648;2022-08-04T01:33:34;19.30;99.90
18073;DHT22;9161;47.348;9.648;2022-08-04T01:38:41;19.20;99.90
18073;DHT22;9161;47.348;9.648;2022-08-04T01:43:27;19.10;99.90
18073;DHT22;9161;47.348;9.648;2022-08-04T01:48:10;19.10;99.90
18073;DHT22;9161;47.348;9.648;2022-08-04T01:52:56;19.10;99.90
18073;DHT22;9161;47.348;9.648;2022-08-04T01:57:42;19.10;99.90
18073;DHT22;9161;47.348;9.648;2022-08-04T02:02:26;19.10;99.90
18073;DHT22;9161;47.348;9.648;2022-08-04T02:07:19;19.20;99.90
18073;DHT22;9161;47.348;9.648;2022-08-04T02:12:21;19.20;99.90
18073;DHT22;9161;47.348;9.648;2022-08-04T02:17:10;19.10;99.90
18073;DHT22;9161;47.348;9.648;2022-08-04T02:21:57;19.00;99.90
18073;DHT22;9161;47.348;9.648;2022-08-04T02:26:48;18.90;99.90
18073;DHT22;9161;47.348;9.648;2022-08-04T02:31:38;18.80;99.90
18073;DHT22;9161;47.348;9.648;2022-08-04T02:36:30;18.70;99.90
18073;DHT22;9161;47.348;9.648;2022-08-04T02:41:15;18.70;99.90
18073;DHT22;9161;47.348;9.648;2022-08-04T02:46:00;18.70;99.90
18073;DHT22;9161;47.348;9.648;2022-08-04T02:51:00;18.90;99.90
18073;DHT22;9161;47.348;9.648;2022-08-04T02:55:45;18.90;99.90
18073;DHT22;9161;47.348;9.648;2022-08-04T03:00:36;18.90;99.90
18073;DHT22;9161;47.348;9.648;2022-08-04T03:05:25;18.80;99.90
18073;DHT22;9161;47.348;9.648;2022-08-04T03:15:57;19.00;99.90
18073;DHT22;9161;47.348;9.648;2022-08-04T03:21:04;19.00;99.90
18073;DHT22;9161;47.348;9.648;2022-08-04T03:31:39;18.80;99.90
18073;DHT22;9161;47.348;9.648;2022-08-04T03:36:51;18.80;99.90
18073;DHT22;9161;47.348;9.648;2022-08-04T03:42:01;18.90;99.90
18073;DHT22;9161;47.348;9.648;2022-08-04T03:52:42;19.10;99.90
18073;DHT22;9161;47.348;9.648;2022-08-04T03:58:12;19.10;99.90
18073;DHT22;9161;47.348;9.648;2022-08-04T04:03:22;19.00;99.90
18073;DHT22;9161;47.348;9.648;2022-08-04T04:08:48;18.90;99.90
18073;DHT22;9161;47.348;9.648;2022-08-04T04:14:03;18.70;99.90
18073;DHT22;9161;47.348;9.648;2022-08-04T04:19:08;18.60;99.90
18073;DHT22;9161;47.348;9.648;2022-08-04T04:24:15;18.60;99.90
18073;DHT22;9161;47.348;9.648;2022-08-04T04:29:25;18.60;99.90
18073;DHT22;9161;47.348;9.648;2022-08-04T04:34:25;18.50;99.90
18073;DHT22;9161;47.348;9.648;2022-08-04T04:39:22;18.40;99.90
18073;DHT22;9161;47.348;9.648;2022-08-04T04:49:30;18.70;99.90
18073;DHT22;9161;47.348;9.648;2022-08-04T04:54:29;18.90;99.90
18073;DHT22;9161;47.348;9.648;2022-08-04T04:59:23;19.00;99.90
18073;DHT22;9161;47.348;9.648;2022-08-04T05:04:46;19.10;99.90
18073;DHT22;9161;47.348;9.648;2022-08-04T05:09:50;19.10;99.90
18073;DHT22;9161;47.348;9.648;2022-08-04T05:14:40;19.30;99.90
18073;DHT22;9161;47.348;9.648;2022-08-04T05:19:34;19.70;99.90
18073;DHT22;9161;47.348;9.648;2022-08-04T05:24:25;20.20;99.90
18073;DHT22;9161;47.348;9.648;2022-08-04T05:29:25;20.60;99.90
18073;DHT22;9161;47.348;9.648;2022-08-04T05:34:15;21.10;99.90
18073;DHT22;9161;47.348;9.648;2022-08-04T05:39:00;21.60;99.90
18073;DHT22;9161;47.348;9.648;2022-08-04T05:43:45;22.10;99.90
18073;DHT22;9161;47.348;9.648;2022-08-04T05:48:31;22.50;99.90
18073;DHT22;9161;47.348;9.648;2022-08-04T05:53:16;22.80;99.90
18073;DHT22;9161;47.348;9.648;2022-08-04T05:58:01;22.90;99.90
18073;DHT22;9161;47.348;9.648;2022-08-04T06:02:45;23.30;99.90
18073;DHT22;9161;47.348;9.648;2022-08-04T06:07:31;23.60;99.90
18073;DHT22;9161;47.348;9.648;2022-08-04T06:12:37;24.00;99.90
18073;DHT22;9161;47.348;9.648;2022-08-04T06:17:29;24.40;99.90
18073;DHT22;9161;47.348;9.648;2022-08-04T06:22:39;24.50;99.90
18073;DHT22;9161;47.348;9.648;2022-08-04T06:27:23;24.70;99.90
18073;DHT22;9161;47.348;9.648;2022-08-04T06:32:07;24.90;99.90
18073;DHT22;9161;47.348;9.648;2022-08-04T06:37:16;25.00;99.90
18073;DHT22;9161;47.348;9.648;2022-08-04T06:42:23;25.30;99.90
18073;DHT22;9161;47.348;9.648;2022-08-04T06:47:09;25.60;99.90
18073;DHT22;9161;47.348;9.648;2022-08-04T06:51:56;26.10;99.90
18073;DHT22;9161;47.348;9.648;2022-08-04T06:56:42;26.40;99.90
18073;DHT22;9161;47.348;9.648;2022-08-04T07:01:28;26.70;99.90
18073;DHT22;9161;47.348;9.648;2022-08-04T07:06:13;27.10;99.90
18073;DHT22;9161;47.348;9.648;2022-08-04T07:10:57;27.50;99.90
18073;DHT22;9161;47.348;9.648;2022-08-04T07:15:44;27.90;99.90
18073;DHT22;9161;47.348;9.648;2022-08-04T07:20:30;28.00;99.90
18073;DHT22;9161;47.348;9.648;2022-08-04T07:25:17;28.40;99.90
18073;DHT22;9161;47.348;9.648;2022-08-04T07:30:10;28.60;99.90
18073;DHT22;9161;47.348;9.648;2022-08-04T07:34:54;29.00;99.90
18073;DHT22;9161;47.348;9.648;2022-08-04T07:39:44;29.20;99.90
18073;DHT22;9161;47.348;9.648;2022-08-04T07:44:30;29.60;99.90
18073;DHT22;9161;47.348;9.648;2022-08-04T07:49:14;29.70;99.90
18073;DHT22;9161;47.348;9.648;2022-08-04T07:54:18;30.10;99.90
18073;DHT22;9161;47.348;9.648;2022-08-04T07:59:04;29.70;99.90
18073;DHT22;9161;47.348;9.648;2022-08-04T08:03:48;30.10;99.90
18073;DHT22;9161;47.348;9.648;2022-08-04T08:08:36;30.30;99.90
18073;DHT22;9161;47.348;9.648;2022-08-04T08:13:20;30.70;99.90
18073;DHT22;9161;47.348;9.648;2022-08-04T08:18:06;30.90;99.90
18073;DHT22;9161;47.348;9.648;2022-08-04T08:22:49;31.20;99.90
18073;DHT22;9161;47.348;9.648;2022-08-04T08:27:33;31.60;99.90
18073;DHT22;9161;47.348;9.648;2022-08-04T08:32:19;31.80;99.90
18073;DHT22;9161;47.348;9.648;2022-08-04T08:37:11;32.10;99.90
18073;DHT22;9161;47.348;9.648;2022-08-04T08:47:24;32.70;98.40
18073;DHT22;9161;47.348;9.648;2022-08-04T08:57:49;33.10;99.90
18073;DHT22;9161;47.348;9.648;2022-08-04T09:08:25;32.90;97.60
18073;DHT22;9161;47.348;9.648;2022-08-04T09:13:16;33.70;97.60
18073;DHT22;9161;47.348;9.648;2022-08-04T09:18:06;34.20;96.80
18073;DHT22;9161;47.348;9.648;2022-08-04T09:22:53;34.50;96.80
18073;DHT22;9161;47.348;9.648;2022-08-04T09:27:45;34.00;96.80
18073;DHT22;9161;47.348;9.648;2022-08-04T09:32:35;33.60;96.40
18073;DHT22;9161;47.348;9.648;2022-08-04T09:37:31;33.90;98.10
18073;DHT22;9161;47.348;9.648;2022-08-04T09:42:37;34.90;96.20
18073;DHT22;9161;47.348;9.648;2022-08-04T09:47:31;35.60;93.50
18073;DHT22;9161;47.348;9.648;2022-08-04T09:52:30;36.20;95.50
18073;DHT22;9161;47.348;9.648;2022-08-04T09:57:22;36.00;92.50
18073;DHT22;9161;47.348;9.648;2022-08-04T10:02:12;36.60;92.90
18073;DHT22;9161;47.348;9.648;2022-08-04T10:07:18;37.00;91.80
18073;DHT22;9161;47.348;9.648;2022-08-04T10:12:20;37.40;90.90
18073;DHT22;9161;47.348;9.648;2022-08-04T10:17:21;37.70;91.80
18073;DHT22;9161;47.348;9.648;2022-08-04T10:22:12;37.80;92.60
18073;DHT22;9161;47.348;9.648;2022-08-04T10:27:19;38.20;93.00
18073;DHT22;9161;47.348;9.648;2022-08-04T10:32:10;38.40;93.30
18073;DHT22;9161;47.348;9.648;2022-08-04T10:37:02;38.10;89.70
18073;DHT22;9161;47.348;9.648;2022-08-04T10:41:54;38.40;90.40
18073;DHT22;9161;47.348;9.648;2022-08-04T10:46:44;39.00;92.70
18073;DHT22;9161;47.348;9.648;2022-08-04T10:51:39;39.20;90.90
18073;DHT22;9161;47.348;9.648;2022-08-04T10:56:43;39.00;90.70
18073;DHT22;9161;47.348;9.648;2022-08-04T11:01:32;39.10;89.20
18073;DHT22;9161;47.348;9.648;2022-08-04T11:06:38;39.20;89.30
18073;DHT22;9161;47.348;9.648;2022-08-04T11:11:28;39.90;87.70
18073;DHT22;9161;47.348;9.648;2022-08-04T11:16:41;39.50;88.70
18073;DHT22;9161;47.348;9.648;2022-08-04T11:21:31;39.90;83.70
18073;DHT22;9161;47.348;9.648;2022-08-04T11:26:20;40.30;87.90
18073;DHT22;9161;47.348;9.648;2022-08-04T11:31:10;40.60;88.40
18073;DHT22;9161;47.348;9.648;2022-08-04T11:36:02;40.70;86.60
18073;DHT22;9161;47.348;9.648;2022-08-04T11:40:52;41.10;84.00
18073;DHT22;9161;47.348;9.648;2022-08-04T11:45:49;41.50;83.20
18073;DHT22;9161;47.348;9.648;2022-08-04T11:50:38;42.00;81.90
18073;DHT22;9161;47.348;9.648;2022-08-04T11:55:25;42.70;80.40
18073;DHT22;9161;47.348;9.648;2022-08-04T12:00:12;42.40;75.50
18073;DHT22;9161;47.348;9.648;2022-08-04T12:04:57;42.60;72.00
18073;DHT22;9161;47.348;9.648;2022-08-04T12:09:47;43.10;75.60
18073;DHT22;9161;47.348;9.648;2022-08-04T12:14:42;43.70;72.50
18073;DHT22;9161;47.348;9.648;2022-08-04T12:19:34;44.30;68.20
18073;DHT22;9161;47.348;9.648;2022-08-04T12:24:43;44.40;69.20
18073;DHT22;9161;47.348;9.648;2022-08-04T12:29:31;44.00;67.60
18073;DHT22;9161;47.348;9.648;2022-08-04T12:34:25;42.10;61.60
18073;DHT22;9161;47.348;9.648;2022-08-04T12:39:16;42.10;64.20
18073;DHT22;9161;47.348;9.648;2022-08-04T12:44:06;42.90;61.70
18073;DHT22;9161;47.348;9.648;2022-08-04T12:49:13;42.60;61.50
18073;DHT22;9161;47.348;9.648;2022-08-04T12:53:58;44.00;64.20
18073;DHT22;9161;47.348;9.648;2022-08-04T12:58:44;44.90;61.20
18073;DHT22;9161;47.348;9.648;2022-08-04T13:03:35;45.10;60.80
18073;DHT22;9161;47.348;9.648;2022-08-04T13:08:20;45.40;63.10
18073;DHT22;9161;47.348;9.648;2022-08-04T13:13:12;45.40;58.30
18073;DHT22;9161;47.348;9.648;2022-08-04T13:17:59;45.70;60.00
18073;DHT22;9161;47.348;9.648;2022-08-04T13:22:44;45.90;59.00
18073;DHT22;9161;47.348;9.648;2022-08-04T13:27:28;44.40;57.00
18073;DHT22;9161;47.348;9.648;2022-08-04T13:32:26;45.60;58.20
18073;DHT22;9161;47.348;9.648;2022-08-04T13:37:11;46.80;56.60
18073;DHT22;9161;47.348;9.648;2022-08-04T13:42:04;46.40;57.50
18073;DHT22;9161;47.348;9.648;2022-08-04T13:46:52;46.20;57.00
18073;DHT22;9161;47.348;9.648;2022-08-04T13:51:40;46.00;56.30
18073;DHT22;9161;47.348;9.648;2022-08-04T13:56:44;46.00;56.40
18073;DHT22;9161;47.348;9.648;2022-08-04T14:01:31;46.40;57.10
18073;DHT22;9161;47.348;9.648;2022-08-04T14:06:19;47.00;55.80
18073;DHT22;9161;47.348;9.648;2022-08-04T14:11:05;45.70;56.00
18073;DHT22;9161;47.348;9.648;2022-08-04T14:16:13;45.60;57.00
18073;DHT22;9161;47.348;9.648;2022-08-04T14:20:59;46.00;55.90
18073;DHT22;9161;47.348;9.648;2022-08-04T14:25:42;45.50;56.40
18073;DHT22;9161;47.348;9.648;2022-08-04T14:30:29;46.10;55.70
18073;DHT22;9161;47.348;9.648;2022-08-04T14:35:15;46.30;56.70
18073;DHT22;9161;47.348;9.648;2022-08-04T14:39:58;46.00;55.10
18073;DHT22;9161;47.348;9.648;2022-08-04T14:45:01;45.70;54.20
18073;DHT22;9161;47.348;9.648;2022-08-04T14:49:54;45.10;55.20
18073;DHT22;9161;47.348;9.648;2022-08-04T14:54:38;44.90;55.70
18073;DHT22;9161;47.348;9.648;2022-08-04T14:59:22;44.40;53.60
18073;DHT22;9161;47.348;9.648;2022-08-04T15:04:06;44.30;54.10
18073;DHT22;9161;47.348;9.648;2022-08-04T15:08:54;43.50;55.20
18073;DHT22;9161;47.348;9.648;2022-08-04T15:13:38;43.40;54.70
18073;DHT22;9161;47.348;9.648;2022-08-04T15:18:22;42.90;55.00
18073;DHT22;9161;47.348;9.648;2022-08-04T15:23:11;42.50;55.90
18073;DHT22;9161;47.348;9.648;2022-08-04T15:27:57;41.80;56.60
18073;DHT22;9161;47.348;9.648;2022-08-04T15:32:46;41.50;56.30
18073;DHT22;9161;47.348;9.648;2022-08-04T15:37:38;41.30;55.90
18073;DHT22;9161;47.348;9.648;2022-08-04T15:42:31;41.00;57.30
18073;DHT22;9161;47.348;9.648;2022-08-04T15:47:19;40.70;57.30
18073;DHT22;9161;47.348;9.648;2022-08-04T15:52:05;40.00;56.90
18073;DHT22;9161;47.348;9.648;2022-08-04T15:56:53;39.70;57.50
18073;DHT22;9161;47.348;9.648;2022-08-04T16:01:44;39.70;58.20
18073;DHT22;9161;47.348;9.648;2022-08-04T16:06:49;39.30;58.00
18073;DHT22;9161;47.348;9.648;2022-08-04T16:11:36;39.20;61.10
18073;DHT22;9161;47.348;9.648;2022-08-04T16:16:26;39.30;59.90
18073;DHT22;9161;47.348;9.648;2022-08-04T16:21:19;38.50;59.10
18073;DHT22;9161;47.348;9.648;2022-08-04T16:26:05;38.40;60.50
18073;DHT22;9161;47.348;9.648;2022-08-04T16:30:49;38.60;59.40
18073;DHT22;9161;47.348;9.648;2022-08-04T16:35:41;38.80;59.50
18073;DHT22;9161;47.348;9.648;2022-08-04T16:40:33;38.90;60.40
18073;DHT22;9161;47.348;9.648;2022-08-04T16:45:21;38.70;59.70
18073;DHT22;9161;47.348;9.648;2022-08-04T16:50:05;38.90;62.30
18073;DHT22;9161;47.348;9.648;2022-08-04T16:54:49;38.70;60.40
18073;DHT22;9161;47.348;9.648;2022-08-04T16:59:33;38.70;63.10
18073;DHT22;9161;47.348;9.648;2022-08-04T17:04:27;38.30;62.20
18073;DHT22;9161;47.348;9.648;2022-08-04T17:09:13;37.90;63.00
18073;DHT22;9161;47.348;9.648;2022-08-04T17:13:57;36.90;66.50
18073;DHT22;9161;47.348;9.648;2022-08-04T17:18:48;35.60;70.60
18073;DHT22;9161;47.348;9.648;2022-08-04T17:23:36;34.60;73.50
18073;DHT22;9161;47.348;9.648;2022-08-04T17:28:41;33.90;75.20
18073;DHT22;9161;47.348;9.648;2022-08-04T17:33:29;33.50;75.70
18073;DHT22;9161;47.348;9.648;2022-08-04T17:38:36;33.80;75.00
18073;DHT22;9161;47.348;9.648;2022-08-04T17:43:45;33.80;79.20
18073;DHT22;9161;47.348;9.648;2022-08-04T17:49:00;33.60;75.50
18073;DHT22;9161;47.348;9.648;2022-08-04T17:53:56;33.00;81.60
18073;DHT22;9161;47.348;9.648;2022-08-04T17:58:44;32.40;84.10
18073;DHT22;9161;47.348;9.648;2022-08-04T18:03:34;31.70;86.50
18073;DHT22;9161;47.348;9.648;2022-08-04T18:08:22;31.50;86.10
18073;DHT22;9161;47.348;9.648;2022-08-04T18:13:30;31.40;86.60
18073;DHT22;9161;47.348;9.648;2022-08-04T18:18:24;31.00;87.80
18073;DHT22;9161;47.348;9.648;2022-08-04T18:23:09;30.70;90.00
18073;DHT22;9161;47.348;9.648;2022-08-04T18:27:57;30.40;87.70
18073;DHT22;9161;47.348;9.648;2022-08-04T18:32:43;30.30;89.90
18073;DHT22;9161;47.348;9.648;2022-08-04T18:37:48;30.30;91.20
18073;DHT22;9161;47.348;9.648;2022-08-04T18:42:49;30.00;90.60
18073;DHT22;9161;47.348;9.648;2022-08-04T18:47:34;29.70;89.80
18073;DHT22;9161;47.348;9.648;2022-08-04T18:52:39;29.50;90.60
18073;DHT22;9161;47.348;9.648;2022-08-04T19:02:56;29.20;90.50
18073;DHT22;9161;47.348;9.648;2022-08-04T19:07:42;29.00;90.60
18073;DHT22;9161;47.348;9.648;2022-08-04T19:12:46;28.90;91.80
18073;DHT22;9161;47.348;9.648;2022-08-04T19:17:31;28.70;90.50
18073;DHT22;9161;47.348;9.648;2022-08-04T19:22:35;28.60;90.00
18073;DHT22;9161;47.348;9.648;2022-08-04T19:27:41;28.60;88.10
18073;DHT22;9161;47.348;9.648;2022-08-04T19:32:35;28.70;86.90
18073;DHT22;9161;47.348;9.648;2022-08-04T19:37:22;28.80;86.70
18073;DHT22;9161;47.348;9.648;2022-08-04T19:42:26;28.80;86.90
18073;DHT22;9161;47.348;9.648;2022-08-04T19:47:12;28.50;90.20
18073;DHT22;9161;47.348;9.648;2022-08-04T19:52:16;28.10;91.30
18073;DHT22;9161;47.348;9.648;2022-08-04T19:57:16;27.80;91.70
18073;DHT22;9161;47.348;9.648;2022-08-04T20:02:17;27.70;92.20
18073;DHT22;9161;47.348;9.648;2022-08-04T20:07:06;27.30;92.50
18073;DHT22;9161;47.348;9.648;2022-08-04T20:11:55;27.10;93.70
18073;DHT22;9161;47.348;9.648;2022-08-04T20:16:40;27.00;94.30
18073;DHT22;9161;47.348;9.648;2022-08-04T20:21:26;26.90;94.60
18073;DHT22;9161;47.348;9.648;2022-08-04T20:26:30;26.70;94.80
18073;DHT22;9161;47.348;9.648;2022-08-04T20:31:15;26.40;95.60
18073;DHT22;9161;47.348;9.648;2022-08-04T20:35:59;26.10;95.90
18073;DHT22;9161;47.348;9.648;2022-08-04T20:40:49;26.00;95.80
18073;DHT22;9161;47.348;9.648;2022-08-04T20:45:33;25.80;95.10
18073;DHT22;9161;47.348;9.648;2022-08-04T20:50:37;25.80;95.50
18073;DHT22;9161;47.348;9.648;2022-08-04T20:55:22;25.50;95.50
18073;DHT22;9161;47.348;9.648;2022-08-04T21:00:08;25.50;96.40
18073;DHT22;9161;47.348;9.648;2022-08-04T21:04:54;25.40;96.30
18073;DHT22;9161;47.348;9.648;2022-08-04T21:09:40;25.30;97.10
18073;DHT22;9161;47.348;9.648;2022-08-04T21:14:32;25.10;96.30
18073;DHT22;9161;47.348;9.648;2022-08-04T21:19:18;24.90;96.50
18073;DHT22;9161;47.348;9.648;2022-08-04T21:24:06;24.70;97.20
18073;DHT22;9161;47.348;9.648;2022-08-04T21:28:50;24.60;97.30
18073;DHT22;9161;47.348;9.648;2022-08-04T21:33:34;24.50;97.10
18073;DHT22;9161;47.348;9.648;2022-08-04T21:38:34;24.40;97.80
18073;DHT22;9161;47.348;9.648;2022-08-04T21:43:18;24.30;98.20
18073;DHT22;9161;47.348;9.648;2022-08-04T21:48:05;24.10;98.40
18073;DHT22;9161;47.348;9.648;2022-08-04T21:52:49;24.00;98.60
18073;DHT22;9161;47.348;9.648;2022-08-04T21:57:35;23.80;99.00
18073;DHT22;9161;47.348;9.648;2022-08-04T22:02:23;23.70;99.60
18073;DHT22;9161;47.348;9.648;2022-08-04T22:07:08;23.50;99.90
18073;DHT22;9161;47.348;9.648;2022-08-04T22:11:52;23.60;99.90
18073;DHT22;9161;47.348;9.648;2022-08-04T22:16:38;23.60;99.90
18073;DHT22;9161;47.348;9.648;2022-08-04T22:21:22;23.30;99.70
18073;DHT22;9161;47.348;9.648;2022-08-04T22:26:13;23.30;99.90
18073;DHT22;9161;47.348;9.648;2022-08-04T22:31:01;23.30;99.60
18073;DHT22;9161;47.348;9.648;2022-08-04T22:36:07;23.30;99.90
18073;DHT22;9161;47.348;9.648;2022-08-04T22:40:55;23.20;99.90
18073;DHT22;9161;47.348;9.648;2022-08-04T22:45:42;23.10;99.90
18073;DHT22;9161;47.348;9.648;2022-08-04T22:50:26;23.20;99.90
18073;DHT22;9161;47.348;9.648;2022-08-04T22:55:12;23.10;99.90
18073;DHT22;9161;47.348;9.648;2022-08-04T22:59:57;23.10;99.90
18073;DHT22;9161;47.348;9.648;2022-08-04T23:04:42;23.10;99.90
18073;DHT22;9161;47.348;9.648;2022-08-04T23:09:31;23.00;99.90
18073;DHT22;9161;47.348;9.648;2022-08-04T23:14:36;22.90;99.90
18073;DHT22;9161;47.348;9.648;2022-08-04T23:19:20;22.80;99.90
18073;DHT22;9161;47.348;9.648;2022-08-04T23:24:06;22.90;99.90
18073;DHT22;9161;47.348;9.648;2022-08-04T23:28:50;22.60;99.90
18073;DHT22;9161;47.348;9.648;2022-08-04T23:33:35;22.70;99.90
18073;DHT22;9161;47.348;9.648;2022-08-04T23:38:32;22.80;99.90
18073;DHT22;9161;47.348;9.648;2022-08-04T23:43:20;22.70;99.90
18073;DHT22;9161;47.348;9.648;2022-08-04T23:48:04;22.60;99.90
18073;DHT22;9161;47.348;9.648;2022-08-04T23:53:01;22.60;99.90
18073;DHT22;9161;47.348;9.648;2022-08-04T23:57:45;22.30;99.90
